Morrilton, Arkansas
Current Conditions -  °F | °C
As of 4:09 AM on Thursday 18 Dec 2014 (Local Time) from KRUE Reporting Station
Overcast Overcast  
Wind Chill: 36°   Ceiling: 1100
Heat Index: 36°   Visibility: 10mi
Dew Point: 33°   Wind: 0mph
Humidity: 89%   Direction: NA
Pressure: 30.2"   Gusts: NA
Location:  35.15°N, 92.74°W
Report Text: KRUE 181009Z AUTO 00000KT 10SM BKN011 OVC032 02/01 A3020 RMK AO2 T00220006
Loading
Personal Weather Stations






























Interactive Weather Map New forecast layout! Learn more

10-Day Weather Forecast

Advertisements
Track Severe Weather on mobile